createdAt,value
2023-05-20T00:01:44.152Z,23.67
2023-05-20T00:06:49.078Z,34.67
2023-05-20T00:11:54.001Z,45.00
2023-05-20T00:16:59.157Z,28.00
2023-05-20T00:22:04.899Z,40.00
2023-05-20T00:27:09.937Z,35.33
2023-05-20T00:32:15.588Z,29.67
2023-05-20T00:37:20.477Z,29.67
2023-05-20T00:42:27.841Z,26.50
2023-05-20T00:47:36.250Z,32.25
2023-05-20T00:52:42.880Z,42.50
2023-05-20T00:57:48.047Z,40.50
2023-05-20T01:02:54.541Z,24.67
2023-05-20T01:07:59.849Z,35.67
2023-05-20T01:13:13.398Z,19.00
2023-05-20T01:18:22.339Z,28.67
2023-05-20T01:23:41.363Z,26.00
2023-05-20T01:28:46.626Z,32.25
2023-05-20T01:33:57.763Z,32.25
2023-05-20T01:39:05.986Z,30.75
2023-05-20T01:44:11.203Z,19.33
2023-05-20T01:49:16.042Z,26.00
2023-05-20T01:54:22.713Z,18.67
2023-05-20T01:59:31.191Z,22.50
2023-05-20T02:04:37.612Z,20.00
2023-05-20T02:09:43.474Z,25.67
2023-05-20T02:14:50.661Z,32.00
2023-05-20T02:19:55.949Z,28.50
2023-05-20T02:25:00.887Z,22.00
2023-05-20T02:30:06.309Z,15.00
2023-05-20T02:35:11.434Z,35.25
2023-05-20T02:40:16.461Z,31.50
2023-05-20T02:45:21.568Z,30.00
2023-05-20T02:50:26.613Z,29.33
2023-05-20T02:55:31.904Z,18.25
2023-05-20T03:00:42.824Z,29.50
2023-05-20T03:05:48.027Z,16.33
2023-05-20T03:10:53.195Z,32.00
2023-05-20T03:15:59.014Z,26.75
2023-05-20T03:21:04.072Z,16.00
2023-05-20T03:31:13.749Z,23.33
2023-05-20T03:36:19.026Z,18.00
2023-05-20T03:41:26.460Z,13.00
2023-05-20T03:46:33.911Z,11.75
2023-05-20T03:56:50.411Z,12.00
2023-05-20T04:01:56.395Z,10.00
2023-05-20T04:07:06.352Z,13.00
2023-05-20T04:12:12.847Z,24.25
2023-05-20T04:17:19.452Z,15.33
2023-05-20T04:22:25.216Z,6.00
2023-05-20T04:27:31.341Z,5.50
2023-05-20T04:32:37.244Z,15.00
2023-05-20T04:37:43.530Z,2.50
2023-05-20T04:42:50.038Z,2.00
2023-05-20T04:47:55.629Z,10.00
2023-05-20T04:53:00.645Z,2.50
2023-05-20T04:58:05.984Z,6.00
2023-05-20T05:03:11.784Z,4.00
2023-05-20T05:08:19.203Z,5.00
2023-05-20T05:13:31.444Z,14.50
2023-05-20T05:18:36.698Z,15.00
2023-05-20T05:23:44.003Z,6.00
2023-05-20T05:28:49.513Z,15.00
2023-05-20T05:33:55.572Z,3.33
2023-05-20T05:39:00.703Z,9.00
2023-05-20T05:44:07.340Z,13.50
2023-05-20T05:49:13.246Z,2.00
2023-05-20T05:54:18.457Z,12.67
2023-05-20T06:04:30.920Z,2.00
2023-05-20T06:09:36.588Z,14.00
2023-05-20T06:14:41.843Z,11.50
2023-05-20T06:19:47.581Z,2.00
2023-05-20T06:24:56.739Z,4.00
2023-05-20T06:30:02.222Z,6.00
2023-05-20T06:35:08.180Z,2.00
2023-05-20T06:40:14.369Z,7.50
2023-05-20T06:45:19.733Z,4.00
2023-05-20T06:50:31.560Z,4.00
2023-05-20T06:55:37.079Z,3.00
2023-05-20T07:00:45.629Z,11.50
2023-05-20T07:05:52.632Z,21.50
2023-05-20T07:10:59.276Z,2.00
2023-05-20T07:16:04.674Z,18.50
2023-05-20T07:21:09.906Z,8.00
2023-05-20T07:26:44.149Z,0.50
2023-05-20T07:31:49.349Z,13.50
2023-05-20T07:36:55.610Z,10.00
2023-05-20T07:42:00.590Z,0.00
2023-05-20T07:47:05.792Z,2.50
2023-05-20T07:52:12.022Z,2.00
2023-05-20T07:57:17.149Z,8.00
2023-05-20T08:02:22.822Z,0.67
2023-05-20T08:07:29.409Z,1.50
2023-05-20T08:12:34.636Z,0.00
2023-05-20T08:17:40.718Z,4.00
2023-05-20T08:22:46.960Z,2.00
2023-05-20T08:27:59.250Z,6.50
2023-05-20T08:33:04.898Z,7.00
2023-05-20T08:38:10.265Z,8.00
2023-05-20T08:43:16.867Z,17.67
2023-05-20T08:48:24.709Z,9.67
2023-05-20T08:53:29.665Z,0.00
2023-05-20T08:58:36.381Z,3.50
2023-05-20T09:03:41.360Z,2.00
2023-05-20T09:08:46.612Z,2.00
2023-05-20T09:13:52.836Z,9.00
2023-05-20T09:18:58.424Z,13.25
2023-05-20T09:24:06.891Z,4.00
2023-05-20T09:29:12.050Z,14.00
2023-05-20T09:34:18.561Z,5.50
2023-05-20T09:39:32.237Z,14.50
2023-05-20T09:44:37.846Z,2.00
2023-05-20T09:49:44.790Z,11.00
2023-05-20T09:54:51.377Z,4.00
2023-05-20T09:59:56.526Z,6.00
2023-05-20T10:05:05.495Z,17.33
2023-05-20T10:10:31.963Z,8.00
2023-05-20T10:16:01.031Z,15.75
2023-05-20T10:21:16.552Z,26.25
2023-05-20T10:26:23.209Z,16.75
2023-05-20T10:31:28.985Z,27.00
2023-05-20T10:36:35.105Z,22.33
2023-05-20T10:47:00.257Z,24.50
2023-05-20T10:52:14.291Z,13.33
2023-05-20T10:57:20.056Z,30.00
2023-05-20T11:02:29.713Z,20.67
2023-05-20T11:07:35.318Z,18.50
2023-05-20T11:12:41.105Z,26.50
2023-05-20T11:17:59.578Z,29.00
2023-05-20T11:23:05.928Z,15.33
2023-05-20T11:28:16.040Z,19.33
2023-05-20T11:33:21.480Z,22.25
2023-05-20T11:38:27.040Z,19.75
2023-05-20T11:43:35.838Z,19.33
2023-05-20T11:48:43.455Z,24.00
2023-05-20T11:53:50.331Z,48.00
2023-05-20T11:58:55.336Z,37.67
2023-05-20T12:04:00.585Z,18.75
2023-05-20T12:09:08.638Z,28.75
2023-05-20T12:14:13.986Z,36.50
2023-05-20T12:19:19.200Z,30.25
2023-05-20T12:24:24.388Z,22.33
2023-05-20T12:29:29.949Z,25.33
2023-05-20T12:34:35.346Z,39.33
2023-05-20T12:39:41.072Z,31.00
2023-05-20T12:44:46.308Z,39.75
2023-05-20T12:49:51.886Z,28.50
2023-05-20T12:54:58.195Z,28.00
2023-05-20T13:00:03.481Z,34.25
2023-05-20T13:05:09.301Z,28.00
2023-05-20T13:10:15.790Z,45.00
2023-05-20T13:15:21.093Z,48.75
2023-05-20T13:20:26.575Z,49.75
2023-05-20T13:25:33.322Z,50.00
2023-05-20T13:30:39.002Z,48.33
2023-05-20T13:35:44.416Z,49.75
2023-05-20T13:40:50.697Z,44.00
2023-05-20T13:45:56.724Z,50.00
2023-05-20T13:51:03.268Z,40.33
2023-05-20T13:56:10.536Z,43.33
2023-05-20T14:01:17.749Z,50.00
2023-05-20T14:06:23.141Z,47.00
2023-05-20T14:11:28.480Z,45.67
2023-05-20T14:16:34.584Z,48.00
2023-05-20T14:21:40.168Z,45.00
2023-05-20T14:26:45.514Z,43.00
2023-05-20T14:31:50.541Z,44.75
2023-05-20T14:36:55.535Z,48.50
2023-05-20T14:42:04.310Z,44.33
2023-05-20T14:47:09.414Z,48.50
2023-05-20T14:52:18.622Z,38.33
2023-05-20T14:57:28.885Z,46.67
2023-05-20T15:02:36.988Z,46.75
2023-05-20T15:07:47.013Z,46.75
2023-05-20T15:12:54.610Z,40.00
2023-05-20T15:18:00.064Z,42.50
2023-05-20T15:23:05.310Z,42.00
2023-05-20T15:28:10.328Z,44.33
2023-05-20T15:33:15.467Z,31.00
2023-05-20T15:38:20.865Z,48.75
2023-05-20T15:43:26.029Z,26.75
2023-05-20T15:48:31.192Z,23.50
2023-05-20T15:53:38.122Z,45.00
2023-05-20T15:58:45.898Z,25.25
2023-05-20T16:03:51.534Z,38.00
2023-05-20T16:08:57.465Z,34.33
2023-05-20T16:14:04.152Z,41.33
2023-05-20T16:19:11.315Z,39.00
2023-05-20T16:24:17.319Z,31.33
2023-05-20T16:29:22.696Z,40.50
2023-05-20T16:34:27.584Z,39.25
2023-05-20T16:39:33.005Z,23.50
2023-05-20T16:44:40.420Z,33.75
2023-05-20T16:49:46.497Z,27.00
2023-05-20T16:54:53.522Z,15.33
2023-05-20T16:59:59.718Z,18.33
2023-05-20T17:05:05.805Z,24.33
2023-05-20T17:10:11.254Z,10.00
2023-05-20T17:15:18.182Z,27.25
2023-05-20T17:20:23.375Z,34.33
2023-05-20T17:25:28.667Z,16.33
2023-05-20T17:35:38.980Z,14.25
2023-05-20T17:40:44.152Z,36.25
2023-05-20T17:45:50.129Z,5.33
2023-05-20T17:50:55.457Z,24.67
2023-05-20T17:56:01.001Z,32.67
2023-05-20T18:01:07.469Z,33.25
2023-05-20T18:06:13.187Z,4.00
2023-05-20T18:11:18.794Z,5.33
2023-05-20T18:16:25.115Z,8.67
2023-05-20T18:21:30.608Z,17.67
2023-05-20T18:26:36.208Z,4.00
2023-05-20T18:31:43.522Z,1.00
2023-05-20T18:36:49.260Z,6.50
2023-05-20T18:46:59.517Z,15.75
2023-05-20T18:52:05.001Z,4.00
2023-05-20T18:57:10.751Z,0.00
2023-05-20T19:02:17.397Z,3.00
2023-05-20T19:07:24.108Z,2.00
2023-05-20T19:12:30.916Z,2.00
2023-05-20T19:17:36.157Z,0.00
2023-05-20T19:22:41.991Z,2.00
2023-05-20T19:27:47.733Z,2.00
2023-05-20T19:32:53.123Z,2.50
2023-05-20T19:37:58.694Z,1.00
2023-05-20T19:43:03.849Z,5.33
2023-05-20T19:48:09.568Z,4.00
2023-05-20T19:53:15.100Z,4.00
2023-05-20T19:58:20.491Z,4.50
2023-05-20T20:03:25.768Z,12.50
2023-05-20T20:08:31.294Z,1.50
2023-05-20T20:13:37.075Z,3.50
2023-05-20T20:18:42.717Z,2.00
2023-05-20T20:23:48.108Z,7.00
2023-05-20T20:33:59.483Z,0.00
2023-05-20T20:39:06.129Z,0.00
2023-05-20T20:44:12.791Z,0.00
2023-05-20T20:49:20.253Z,0.00
2023-05-20T20:54:25.828Z,2.00
2023-05-20T20:59:33.283Z,2.00
2023-05-20T21:04:40.972Z,2.00
2023-05-20T21:14:52.329Z,2.00
2023-05-20T21:19:57.897Z,4.00
2023-05-20T21:25:03.666Z,0.00
2023-05-20T21:30:11.090Z,5.33
2023-05-20T21:35:16.695Z,14.33
2023-05-20T21:40:22.337Z,4.00
2023-05-20T21:45:27.715Z,4.00
2023-05-20T21:55:38.378Z,1.00
2023-05-20T22:00:44.289Z,3.33
2023-05-20T22:05:50.978Z,5.00
2023-05-20T22:10:56.756Z,5.00
2023-05-20T22:16:05.886Z,3.33
2023-05-20T22:21:11.613Z,2.67
2023-05-20T22:26:20.185Z,0.00
2023-05-20T22:31:27.261Z,3.00
2023-05-20T22:36:35.337Z,1.33
2023-05-20T22:41:40.719Z,10.00
2023-05-20T22:46:46.141Z,9.33
2023-05-20T22:51:53.877Z,2.67
2023-05-20T22:57:00.467Z,0.00
2023-05-20T23:02:06.198Z,12.50
2023-05-20T23:07:16.025Z,2.00
2023-05-20T23:12:21.389Z,3.50
2023-05-20T23:17:26.818Z,4.00
2023-05-20T23:22:32.849Z,3.50
2023-05-20T23:27:38.722Z,2.50
2023-05-20T23:32:44.860Z,2.50
2023-05-20T23:37:50.626Z,4.50
2023-05-20T23:42:56.081Z,4.00
2023-05-20T23:53:09.296Z,2.00
2023-05-20T23:58:14.737Z,4.00
